sensor_id;sensor_type;location;lat;lon;timestamp;P1;durP1;ratioP1;P2;durP2;ratioP2
21416;SDS011;10869;52.238;10.716;2023-04-25T03:10:09;24.27;;;9.23;;
21416;SDS011;10869;52.238;10.716;2023-04-25T03:28:31;19.73;;;9.50;;
21416;SDS011;10869;52.238;10.716;2023-04-25T03:35:42;17.93;;;9.30;;
21416;SDS011;10869;52.238;10.716;2023-04-25T04:07:55;28.03;;;10.30;;
21416;SDS011;10869;52.238;10.716;2023-04-25T04:10:27;23.67;;;9.53;;
21416;SDS011;10869;52.238;10.716;2023-04-25T04:12:56;20.13;;;8.93;;
21416;SDS011;10869;52.238;10.716;2023-04-25T04:15:54;19.07;;;8.80;;
21416;SDS011;10869;52.238;10.716;2023-04-25T04:18:27;27.60;;;9.97;;
21416;SDS011;10869;52.238;10.716;2023-04-25T04:20:53;24.20;;;9.27;;
21416;SDS011;10869;52.238;10.716;2023-04-25T04:23:23;28.77;;;8.37;;
21416;SDS011;10869;52.238;10.716;2023-04-25T04:26:00;33.07;;;7.33;;
21416;SDS011;10869;52.238;10.716;2023-04-25T04:28:33;30.87;;;7.37;;
21416;SDS011;10869;52.238;10.716;2023-04-25T04:31:09;29.57;;;6.80;;
21416;SDS011;10869;52.238;10.716;2023-04-25T04:33:45;29.27;;;6.73;;
21416;SDS011;10869;52.238;10.716;2023-04-25T04:36:12;24.87;;;6.47;;
21416;SDS011;10869;52.238;10.716;2023-04-25T04:38:40;37.33;;;8.23;;
21416;SDS011;10869;52.238;10.716;2023-04-25T04:41:07;28.43;;;6.97;;
21416;SDS011;10869;52.238;10.716;2023-04-25T04:43:45;28.07;;;6.87;;
21416;SDS011;10869;52.238;10.716;2023-04-25T04:46:34;23.80;;;6.40;;
21416;SDS011;10869;52.238;10.716;2023-04-25T04:52:28;35.67;;;7.57;;
21416;SDS011;10869;52.238;10.716;2023-04-25T04:54:57;24.17;;;6.87;;
21416;SDS011;10869;52.238;10.716;2023-04-25T04:57:23;25.43;;;6.67;;
21416;SDS011;10869;52.238;10.716;2023-04-25T04:59:58;28.83;;;9.07;;
21416;SDS011;10869;52.238;10.716;2023-04-25T05:02:37;25.53;;;8.33;;
21416;SDS011;10869;52.238;10.716;2023-04-25T05:05:04;31.27;;;7.27;;
21416;SDS011;10869;52.238;10.716;2023-04-25T05:07:37;26.63;;;6.87;;
21416;SDS011;10869;52.238;10.716;2023-04-25T05:10:08;31.37;;;7.07;;
21416;SDS011;10869;52.238;10.716;2023-04-25T05:12:39;29.70;;;6.37;;
21416;SDS011;10869;52.238;10.716;2023-04-25T05:15:12;29.00;;;6.47;;
21416;SDS011;10869;52.238;10.716;2023-04-25T05:17:44;28.97;;;7.17;;
21416;SDS011;10869;52.238;10.716;2023-04-25T05:20:12;33.83;;;6.83;;
21416;SDS011;10869;52.238;10.716;2023-04-25T05:22:39;25.27;;;5.67;;
21416;SDS011;10869;52.238;10.716;2023-04-25T05:25:06;35.17;;;6.30;;
21416;SDS011;10869;52.238;10.716;2023-04-25T05:27:33;35.63;;;8.00;;
21416;SDS011;10869;52.238;10.716;2023-04-25T05:33:21;22.33;;;6.27;;
21416;SDS011;10869;52.238;10.716;2023-04-25T05:35:48;31.03;;;6.50;;
21416;SDS011;10869;52.238;10.716;2023-04-25T05:38:14;23.80;;;5.50;;
21416;SDS011;10869;52.238;10.716;2023-04-25T05:40:39;29.23;;;6.80;;
21416;SDS011;10869;52.238;10.716;2023-04-25T05:43:05;25.63;;;5.77;;
21416;SDS011;10869;52.238;10.716;2023-04-25T05:45:32;35.87;;;7.33;;
21416;SDS011;10869;52.238;10.716;2023-04-25T05:47:58;26.23;;;5.33;;
21416;SDS011;10869;52.238;10.716;2023-04-25T05:50:23;27.40;;;5.67;;
21416;SDS011;10869;52.238;10.716;2023-04-25T05:52:49;29.03;;;6.73;;
21416;SDS011;10869;52.238;10.716;2023-04-25T05:55:15;24.47;;;6.43;;
21416;SDS011;10869;52.238;10.716;2023-04-25T05:57:41;35.97;;;7.43;;
21416;SDS011;10869;52.238;10.716;2023-04-25T06:00:10;28.97;;;6.90;;
21416;SDS011;10869;52.238;10.716;2023-04-25T06:02:37;28.60;;;6.60;;
21416;SDS011;10869;52.238;10.716;2023-04-25T06:05:03;28.90;;;5.97;;
21416;SDS011;10869;52.238;10.716;2023-04-25T06:10:51;31.73;;;5.73;;
21416;SDS011;10869;52.238;10.716;2023-04-25T06:16:38;34.20;;;5.63;;
21416;SDS011;10869;52.238;10.716;2023-04-25T06:22:26;32.47;;;6.20;;
21416;SDS011;10869;52.238;10.716;2023-04-25T06:24:52;25.37;;;5.23;;
21416;SDS011;10869;52.238;10.716;2023-04-25T06:27:17;25.53;;;5.77;;
21416;SDS011;10869;52.238;10.716;2023-04-25T06:29:43;25.70;;;6.83;;
21416;SDS011;10869;52.238;10.716;2023-04-25T06:32:09;28.70;;;4.97;;
21416;SDS011;10869;52.238;10.716;2023-04-25T06:34:34;27.70;;;5.73;;
21416;SDS011;10869;52.238;10.716;2023-04-25T06:40:22;36.37;;;5.13;;
21416;SDS011;10869;52.238;10.716;2023-04-25T06:42:48;23.37;;;4.70;;
21416;SDS011;10869;52.238;10.716;2023-04-25T06:45:14;30.83;;;5.27;;
21416;SDS011;10869;52.238;10.716;2023-04-25T06:47:39;26.57;;;5.40;;
21416;SDS011;10869;52.238;10.716;2023-04-25T06:50:05;30.73;;;5.27;;
21416;SDS011;10869;52.238;10.716;2023-04-25T06:52:31;24.53;;;5.17;;
21416;SDS011;10869;52.238;10.716;2023-04-25T06:58:19;29.70;;;5.60;;
21416;SDS011;10869;52.238;10.716;2023-04-25T07:00:45;27.23;;;5.83;;
21416;SDS011;10869;52.238;10.716;2023-04-25T07:03:11;27.13;;;6.60;;
21416;SDS011;10869;52.238;10.716;2023-04-25T07:05:37;19.70;;;4.10;;
21416;SDS011;10869;52.238;10.716;2023-04-25T07:08:02;21.70;;;4.00;;
21416;SDS011;10869;52.238;10.716;2023-04-25T07:10:29;17.30;;;4.63;;
21416;SDS011;10869;52.238;10.716;2023-04-25T07:12:54;19.40;;;4.10;;
21416;SDS011;10869;52.238;10.716;2023-04-25T07:15:20;21.60;;;4.40;;
21416;SDS011;10869;52.238;10.716;2023-04-25T07:17:49;27.63;;;6.20;;
21416;SDS011;10869;52.238;10.716;2023-04-25T07:20:26;19.20;;;4.13;;
21416;SDS011;10869;52.238;10.716;2023-04-25T07:22:57;24.27;;;3.87;;
21416;SDS011;10869;52.238;10.716;2023-04-25T07:25:39;25.90;;;4.07;;
21416;SDS011;10869;52.238;10.716;2023-04-25T07:28:25;18.30;;;3.93;;
21416;SDS011;10869;52.238;10.716;2023-04-25T07:36:02;19.03;;;3.73;;
21416;SDS011;10869;52.238;10.716;2023-04-25T07:38:32;14.40;;;3.70;;
21416;SDS011;10869;52.238;10.716;2023-04-25T07:41:39;17.83;;;4.20;;
21416;SDS011;10869;52.238;10.716;2023-04-25T07:47:27;20.60;;;3.63;;
21416;SDS011;10869;52.238;10.716;2023-04-25T07:49:53;15.37;;;3.47;;
21416;SDS011;10869;52.238;10.716;2023-04-25T07:52:19;15.07;;;3.13;;
21416;SDS011;10869;52.238;10.716;2023-04-25T09:21:09;14.37;;;3.70;;
21416;SDS011;10869;52.238;10.716;2023-04-25T09:23:53;10.63;;;3.10;;
21416;SDS011;10869;52.238;10.716;2023-04-25T09:26:24;10.53;;;3.20;;
21416;SDS011;10869;52.238;10.716;2023-04-25T09:32:20;13.47;;;2.87;;
21416;SDS011;10869;52.238;10.716;2023-04-25T09:48:03;12.27;;;3.10;;
21416;SDS011;10869;52.238;10.716;2023-04-25T09:50:41;10.37;;;2.90;;
21416;SDS011;10869;52.238;10.716;2023-04-25T09:58:28;13.23;;;3.30;;
21416;SDS011;10869;52.238;10.716;2023-04-25T10:01:00;12.47;;;2.80;;
21416;SDS011;10869;52.238;10.716;2023-04-25T10:03:32;13.70;;;2.43;;
21416;SDS011;10869;52.238;10.716;2023-04-25T10:11:40;10.13;;;2.37;;
21416;SDS011;10869;52.238;10.716;2023-04-25T10:18:04;10.00;;;2.53;;
21416;SDS011;10869;52.238;10.716;2023-04-25T10:20:35;8.43;;;2.40;;
21416;SDS011;10869;52.238;10.716;2023-04-25T10:23:12;11.53;;;2.63;;
21416;SDS011;10869;52.238;10.716;2023-04-25T10:33:36;11.17;;;2.60;;
21416;SDS011;10869;52.238;10.716;2023-04-25T10:36:20;9.27;;;2.40;;
21416;SDS011;10869;52.238;10.716;2023-04-25T10:38:53;10.67;;;2.50;;
21416;SDS011;10869;52.238;10.716;2023-04-25T10:41:27;10.93;;;2.23;;
21416;SDS011;10869;52.238;10.716;2023-04-25T10:44:33;9.93;;;2.87;;
21416;SDS011;10869;52.238;10.716;2023-04-25T10:47:34;9.87;;;2.13;;
21416;SDS011;10869;52.238;10.716;2023-04-25T10:50:09;11.30;;;2.83;;
21416;SDS011;10869;52.238;10.716;2023-04-25T10:52:44;10.90;;;2.40;;
21416;SDS011;10869;52.238;10.716;2023-04-25T10:55:13;9.50;;;2.30;;
21416;SDS011;10869;52.238;10.716;2023-04-25T10:57:46;10.20;;;2.43;;
21416;SDS011;10869;52.238;10.716;2023-04-25T11:00:18;16.03;;;2.77;;
21416;SDS011;10869;52.238;10.716;2023-04-25T11:02:58;10.50;;;2.73;;
21416;SDS011;10869;52.238;10.716;2023-04-25T11:05:35;10.57;;;2.83;;
21416;SDS011;10869;52.238;10.716;2023-04-25T11:08:16;11.10;;;2.30;;
21416;SDS011;10869;52.238;10.716;2023-04-25T11:11:01;10.33;;;2.60;;
21416;SDS011;10869;52.238;10.716;2023-04-25T11:13:58;6.87;;;2.27;;
21416;SDS011;10869;52.238;10.716;2023-04-25T11:16:36;11.83;;;2.90;;
21416;SDS011;10869;52.238;10.716;2023-04-25T11:19:02;16.47;;;2.33;;
21416;SDS011;10869;52.238;10.716;2023-04-25T11:21:29;10.07;;;2.47;;
21416;SDS011;10869;52.238;10.716;2023-04-25T11:23:58;8.57;;;2.17;;
21416;SDS011;10869;52.238;10.716;2023-04-25T11:26:32;12.67;;;2.23;;
21416;SDS011;10869;52.238;10.716;2023-04-25T11:29:02;11.60;;;1.73;;
21416;SDS011;10869;52.238;10.716;2023-04-25T12:03:16;11.10;;;2.47;;
21416;SDS011;10869;52.238;10.716;2023-04-25T12:05:45;10.00;;;2.03;;
21416;SDS011;10869;52.238;10.716;2023-04-25T12:11:53;8.33;;;1.90;;
21416;SDS011;10869;52.238;10.716;2023-04-25T12:14:21;8.70;;;2.40;;
21416;SDS011;10869;52.238;10.716;2023-04-25T12:20:16;9.23;;;2.00;;
21416;SDS011;10869;52.238;10.716;2023-04-25T12:22:49;13.37;;;2.20;;
21416;SDS011;10869;52.238;10.716;2023-04-25T12:34:11;6.43;;;2.33;;
21416;SDS011;10869;52.238;10.716;2023-04-25T12:39:59;9.80;;;1.63;;
21416;SDS011;10869;52.238;10.716;2023-04-25T12:42:25;8.03;;;1.70;;
21416;SDS011;10869;52.238;10.716;2023-04-25T12:44:50;7.33;;;1.47;;
21416;SDS011;10869;52.238;10.716;2023-04-25T12:47:17;10.03;;;2.20;;
21416;SDS011;10869;52.238;10.716;2023-04-25T12:49:42;10.00;;;3.60;;
21416;SDS011;10869;52.238;10.716;2023-04-25T12:52:09;7.73;;;2.10;;
21416;SDS011;10869;52.238;10.716;2023-04-25T12:54:35;8.23;;;3.00;;
21416;SDS011;10869;52.238;10.716;2023-04-25T12:57:02;8.60;;;1.77;;
21416;SDS011;10869;52.238;10.716;2023-04-25T12:59:28;7.07;;;2.97;;
21416;SDS011;10869;52.238;10.716;2023-04-25T13:01:55;10.60;;;2.17;;
21416;SDS011;10869;52.238;10.716;2023-04-25T13:04:21;5.53;;;1.20;;
21416;SDS011;10869;52.238;10.716;2023-04-25T13:06:47;7.70;;;1.80;;
21416;SDS011;10869;52.238;10.716;2023-04-25T13:09:13;5.87;;;1.47;;
21416;SDS011;10869;52.238;10.716;2023-04-25T13:11:40;10.73;;;2.13;;
21416;SDS011;10869;52.238;10.716;2023-04-25T13:14:09;8.20;;;1.87;;
21416;SDS011;10869;52.238;10.716;2023-04-25T13:16:35;7.60;;;2.00;;
21416;SDS011;10869;52.238;10.716;2023-04-25T13:19:01;11.93;;;3.60;;
21416;SDS011;10869;52.238;10.716;2023-04-25T13:21:29;7.33;;;2.50;;
21416;SDS011;10869;52.238;10.716;2023-04-25T13:23:57;6.13;;;2.37;;
21416;SDS011;10869;52.238;10.716;2023-04-25T13:26:22;10.77;;;2.30;;
21416;SDS011;10869;52.238;10.716;2023-04-25T13:28:48;7.60;;;2.07;;
21416;SDS011;10869;52.238;10.716;2023-04-25T13:31:14;6.63;;;1.60;;
21416;SDS011;10869;52.238;10.716;2023-04-25T13:33:40;13.93;;;1.60;;
21416;SDS011;10869;52.238;10.716;2023-04-25T13:36:06;9.40;;;1.60;;
21416;SDS011;10869;52.238;10.716;2023-04-25T13:38:32;6.70;;;1.50;;
21416;SDS011;10869;52.238;10.716;2023-04-25T13:40:58;7.63;;;1.70;;
21416;SDS011;10869;52.238;10.716;2023-04-25T13:43:25;8.57;;;1.53;;
21416;SDS011;10869;52.238;10.716;2023-04-25T13:45:51;4.43;;;1.47;;
21416;SDS011;10869;52.238;10.716;2023-04-25T13:48:18;6.70;;;2.23;;
21416;SDS011;10869;52.238;10.716;2023-04-25T13:50:45;7.23;;;1.60;;
21416;SDS011;10869;52.238;10.716;2023-04-25T13:53:11;7.77;;;2.07;;
21416;SDS011;10869;52.238;10.716;2023-04-25T13:55:37;5.97;;;1.23;;
21416;SDS011;10869;52.238;10.716;2023-04-25T13:58:03;9.23;;;1.80;;
21416;SDS011;10869;52.238;10.716;2023-04-25T14:00:33;9.33;;;2.20;;
21416;SDS011;10869;52.238;10.716;2023-04-25T14:03:01;4.37;;;1.23;;
21416;SDS011;10869;52.238;10.716;2023-04-25T14:05:29;8.53;;;1.73;;
21416;SDS011;10869;52.238;10.716;2023-04-25T14:07:56;7.53;;;1.43;;
21416;SDS011;10869;52.238;10.716;2023-04-25T14:10:22;8.27;;;1.93;;
21416;SDS011;10869;52.238;10.716;2023-04-25T14:12:52;8.93;;;2.00;;
21416;SDS011;10869;52.238;10.716;2023-04-25T14:15:26;12.10;;;2.57;;
21416;SDS011;10869;52.238;10.716;2023-04-25T14:17:52;5.17;;;1.57;;
21416;SDS011;10869;52.238;10.716;2023-04-25T14:20:18;4.80;;;1.00;;
21416;SDS011;10869;52.238;10.716;2023-04-25T14:22:46;7.73;;;1.07;;
21416;SDS011;10869;52.238;10.716;2023-04-25T14:25:17;2.80;;;0.77;;
21416;SDS011;10869;52.238;10.716;2023-04-25T14:27:43;6.03;;;1.30;;
21416;SDS011;10869;52.238;10.716;2023-04-25T14:30:12;8.67;;;1.73;;
21416;SDS011;10869;52.238;10.716;2023-04-25T14:32:38;10.70;;;1.23;;
21416;SDS011;10869;52.238;10.716;2023-04-25T14:35:04;8.40;;;1.80;;
21416;SDS011;10869;52.238;10.716;2023-04-25T14:37:30;5.20;;;1.30;;
21416;SDS011;10869;52.238;10.716;2023-04-25T14:39:56;6.57;;;1.20;;
21416;SDS011;10869;52.238;10.716;2023-04-25T14:42:22;7.70;;;1.53;;
21416;SDS011;10869;52.238;10.716;2023-04-25T14:44:48;6.63;;;1.30;;
21416;SDS011;10869;52.238;10.716;2023-04-25T14:47:13;6.10;;;1.40;;
21416;SDS011;10869;52.238;10.716;2023-04-25T14:49:40;6.23;;;1.20;;
21416;SDS011;10869;52.238;10.716;2023-04-25T14:52:06;10.97;;;1.70;;
21416;SDS011;10869;52.238;10.716;2023-04-25T14:54:32;9.17;;;1.27;;
21416;SDS011;10869;52.238;10.716;2023-04-25T14:56:58;4.97;;;1.40;;
21416;SDS011;10869;52.238;10.716;2023-04-25T14:59:24;9.30;;;1.80;;
21416;SDS011;10869;52.238;10.716;2023-04-25T15:01:50;3.87;;;1.17;;
21416;SDS011;10869;52.238;10.716;2023-04-25T15:04:16;8.00;;;1.50;;
21416;SDS011;10869;52.238;10.716;2023-04-25T15:06:42;11.67;;;1.90;;
21416;SDS011;10869;52.238;10.716;2023-04-25T15:09:08;7.23;;;1.50;;
21416;SDS011;10869;52.238;10.716;2023-04-25T15:11:35;9.27;;;1.67;;
21416;SDS011;10869;52.238;10.716;2023-04-25T15:14:02;7.13;;;1.30;;
21416;SDS011;10869;52.238;10.716;2023-04-25T15:16:27;6.57;;;1.37;;
21416;SDS011;10869;52.238;10.716;2023-04-25T15:18:53;6.90;;;1.33;;
21416;SDS011;10869;52.238;10.716;2023-04-25T15:21:19;5.50;;;1.30;;
21416;SDS011;10869;52.238;10.716;2023-04-25T15:23:45;7.10;;;1.47;;
21416;SDS011;10869;52.238;10.716;2023-04-25T15:26:12;5.23;;;1.43;;
21416;SDS011;10869;52.238;10.716;2023-04-25T15:28:37;8.77;;;1.90;;
21416;SDS011;10869;52.238;10.716;2023-04-25T15:31:08;6.70;;;1.80;;
21416;SDS011;10869;52.238;10.716;2023-04-25T15:33:35;5.67;;;1.60;;
21416;SDS011;10869;52.238;10.716;2023-04-25T15:36:14;5.27;;;1.43;;
21416;SDS011;10869;52.238;10.716;2023-04-25T15:38:41;8.90;;;2.00;;
21416;SDS011;10869;52.238;10.716;2023-04-25T15:41:07;9.93;;;2.50;;
21416;SDS011;10869;52.238;10.716;2023-04-25T15:46:55;9.67;;;2.20;;
21416;SDS011;10869;52.238;10.716;2023-04-25T15:49:21;7.13;;;2.00;;
21416;SDS011;10869;52.238;10.716;2023-04-25T15:56:57;8.30;;;2.17;;
21416;SDS011;10869;52.238;10.716;2023-04-25T15:59:23;9.30;;;1.70;;
21416;SDS011;10869;52.238;10.716;2023-04-25T16:01:49;9.67;;;2.00;;
21416;SDS011;10869;52.238;10.716;2023-04-25T16:04:15;7.70;;;1.47;;
21416;SDS011;10869;52.238;10.716;2023-04-25T16:06:40;8.03;;;2.17;;
21416;SDS011;10869;52.238;10.716;2023-04-25T16:09:06;13.20;;;2.63;;
21416;SDS011;10869;52.238;10.716;2023-04-25T16:11:32;8.80;;;2.50;;
21416;SDS011;10869;52.238;10.716;2023-04-25T16:14:01;10.77;;;2.00;;
21416;SDS011;10869;52.238;10.716;2023-04-25T16:19:58;7.07;;;1.77;;
21416;SDS011;10869;52.238;10.716;2023-04-25T16:25:09;9.53;;;1.70;;
21416;SDS011;10869;52.238;10.716;2023-04-25T16:27:36;9.60;;;2.00;;
21416;SDS011;10869;52.238;10.716;2023-04-25T16:32:56;6.13;;;1.43;;
21416;SDS011;10869;52.238;10.716;2023-04-25T16:38:43;8.07;;;1.53;;
21416;SDS011;10869;52.238;10.716;2023-04-25T16:41:09;9.10;;;1.90;;
21416;SDS011;10869;52.238;10.716;2023-04-25T16:43:37;5.07;;;1.50;;
21416;SDS011;10869;52.238;10.716;2023-04-25T16:46:04;6.57;;;1.30;;
21416;SDS011;10869;52.238;10.716;2023-04-25T16:48:30;6.80;;;1.53;;
21416;SDS011;10869;52.238;10.716;2023-04-25T16:50:56;5.67;;;1.60;;
21416;SDS011;10869;52.238;10.716;2023-04-25T16:53:22;8.27;;;1.80;;
21416;SDS011;10869;52.238;10.716;2023-04-25T16:55:48;11.43;;;2.57;;
21416;SDS011;10869;52.238;10.716;2023-04-25T16:58:14;5.40;;;1.40;;
21416;SDS011;10869;52.238;10.716;2023-04-25T17:00:40;7.47;;;2.27;;
21416;SDS011;10869;52.238;10.716;2023-04-25T17:03:06;9.40;;;2.37;;
21416;SDS011;10869;52.238;10.716;2023-04-25T17:05:33;7.93;;;1.80;;
21416;SDS011;10869;52.238;10.716;2023-04-25T17:07:59;7.20;;;2.00;;
21416;SDS011;10869;52.238;10.716;2023-04-25T17:10:25;7.43;;;1.60;;
21416;SDS011;10869;52.238;10.716;2023-04-25T17:12:52;11.20;;;1.90;;
21416;SDS011;10869;52.238;10.716;2023-04-25T17:15:34;9.67;;;2.30;;
21416;SDS011;10869;52.238;10.716;2023-04-25T17:28:39;9.83;;;2.10;;
21416;SDS011;10869;52.238;10.716;2023-04-25T17:31:06;5.67;;;1.73;;
21416;SDS011;10869;52.238;10.716;2023-04-25T17:33:50;6.63;;;1.63;;
21416;SDS011;10869;52.238;10.716;2023-04-25T17:39:19;8.00;;;2.40;;
21416;SDS011;10869;52.238;10.716;2023-04-25T17:41:45;9.90;;;2.60;;
21416;SDS011;10869;52.238;10.716;2023-04-25T17:44:12;9.20;;;2.03;;
21416;SDS011;10869;52.238;10.716;2023-04-25T17:46:37;9.70;;;2.60;;
21416;SDS011;10869;52.238;10.716;2023-04-25T17:51:33;7.43;;;2.30;;
21416;SDS011;10869;52.238;10.716;2023-04-25T17:56:35;10.63;;;3.80;;
21416;SDS011;10869;52.238;10.716;2023-04-25T17:59:03;11.40;;;4.93;;
21416;SDS011;10869;52.238;10.716;2023-04-25T18:01:31;15.27;;;4.70;;
21416;SDS011;10869;52.238;10.716;2023-04-25T18:03:57;11.03;;;3.80;;
21416;SDS011;10869;52.238;10.716;2023-04-25T18:09:09;6.90;;;2.70;;
21416;SDS011;10869;52.238;10.716;2023-04-25T18:11:47;8.00;;;3.00;;
21416;SDS011;10869;52.238;10.716;2023-04-25T18:14:16;8.80;;;2.70;;
21416;SDS011;10869;52.238;10.716;2023-04-25T18:16:44;8.73;;;2.40;;
21416;SDS011;10869;52.238;10.716;2023-04-25T18:19:11;6.90;;;2.97;;
21416;SDS011;10869;52.238;10.716;2023-04-25T18:21:43;10.53;;;3.10;;
21416;SDS011;10869;52.238;10.716;2023-04-25T18:27:31;8.77;;;3.07;;
21416;SDS011;10869;52.238;10.716;2023-04-25T22:10:02;9.57;;;2.37;;
21416;SDS011;10869;52.238;10.716;2023-04-25T22:12:32;11.07;;;2.37;;
21416;SDS011;10869;52.238;10.716;2023-04-25T22:15:00;12.57;;;2.67;;
21416;SDS011;10869;52.238;10.716;2023-04-25T22:17:33;9.60;;;2.20;;
21416;SDS011;10869;52.238;10.716;2023-04-25T22:20:19;10.50;;;2.53;;
21416;SDS011;10869;52.238;10.716;2023-04-25T22:23:05;10.23;;;2.40;;
21416;SDS011;10869;52.238;10.716;2023-04-25T22:25:42;7.07;;;1.97;;
21416;SDS011;10869;52.238;10.716;2023-04-25T22:28:47;15.17;;;3.13;;
21416;SDS011;10869;52.238;10.716;2023-04-25T22:31:17;13.27;;;2.20;;
21416;SDS011;10869;52.238;10.716;2023-04-25T22:34:14;8.30;;;2.20;;
21416;SDS011;10869;52.238;10.716;2023-04-25T22:36:42;9.53;;;2.33;;
21416;SDS011;10869;52.238;10.716;2023-04-25T22:39:26;11.60;;;3.53;;
21416;SDS011;10869;52.238;10.716;2023-04-25T22:41:54;18.50;;;2.80;;
21416;SDS011;10869;52.238;10.716;2023-04-25T22:44:33;9.73;;;3.30;;
21416;SDS011;10869;52.238;10.716;2023-04-25T22:47:27;13.27;;;3.17;;
21416;SDS011;10869;52.238;10.716;2023-04-25T22:50:32;14.77;;;2.50;;
21416;SDS011;10869;52.238;10.716;2023-04-25T22:56:31;14.53;;;2.73;;
21416;SDS011;10869;52.238;10.716;2023-04-25T22:59:10;13.93;;;2.47;;
